createdAt,value
2016-06-12T00:00:02.401Z,18.84
2016-06-12T00:01:02.358Z,18.93
2016-06-12T00:02:02.376Z,18.85
2016-06-12T00:03:02.332Z,18.85
2016-06-12T00:04:02.335Z,18.92
2016-06-12T00:05:02.807Z,18.84
2016-06-12T00:06:02.310Z,18.88
2016-06-12T00:07:02.314Z,18.97
2016-06-12T00:08:02.286Z,18.97
2016-06-12T00:09:02.298Z,18.88
2016-06-12T00:10:02.340Z,18.95
2016-06-12T00:11:02.366Z,18.97
2016-06-12T00:12:02.407Z,18.9
2016-06-12T00:13:02.260Z,18.87
2016-06-12T00:14:02.441Z,18.9
2016-06-12T00:15:02.426Z,18.93
2016-06-12T00:16:02.413Z,18.95
2016-06-12T00:17:02.429Z,18.9
2016-06-12T00:18:02.430Z,18.93
2016-06-12T00:19:02.410Z,18.85
2016-06-12T00:20:02.605Z,18.84
2016-06-12T00:21:02.395Z,18.9
2016-06-12T00:22:02.403Z,18.82
2016-06-12T00:23:02.379Z,18.8
2016-06-12T00:24:02.385Z,18.7
2016-06-12T00:25:02.375Z,18.74
2016-06-12T00:26:02.349Z,18.78
2016-06-12T00:27:02.354Z,18.81
2016-06-12T00:28:02.343Z,18.81
2016-06-12T00:29:02.347Z,18.9
2016-06-12T00:30:02.335Z,18.74
2016-06-12T00:31:02.291Z,18.7
2016-06-12T00:32:02.280Z,18.74
2016-06-12T00:33:02.283Z,18.8
2016-06-12T00:34:02.271Z,18.77
2016-06-12T00:35:02.290Z,18.85
2016-06-12T00:36:02.230Z,18.81
2016-06-12T00:37:02.281Z,18.75
2016-06-12T00:38:02.222Z,18.6
2016-06-12T00:39:02.225Z,18.69
2016-06-12T00:40:02.197Z,18.7
2016-06-12T00:41:02.184Z,18.62
2016-06-12T00:42:02.188Z,18.51
2016-06-12T00:43:02.174Z,18.63
2016-06-12T00:44:02.163Z,18.59
2016-06-12T00:45:02.197Z,18.62
2016-06-12T00:46:02.137Z,18.62
2016-06-12T00:47:02.156Z,18.56
2016-06-12T00:48:02.112Z,18.66
2016-06-12T00:49:02.115Z,18.63
2016-06-12T00:50:02.416Z,18.44
2016-06-12T00:51:02.074Z,18.52
2016-06-12T00:52:02.063Z,18.51
2016-06-12T00:53:02.033Z,18.55
2016-06-12T00:54:02.037Z,18.52
2016-06-12T00:55:02.025Z,18.58
2016-06-12T00:56:02.011Z,18.5
2016-06-12T00:57:01.999Z,18.5
2016-06-12T00:58:01.987Z,18.48
2016-06-12T00:59:01.974Z,18.41
2016-06-12T01:00:01.805Z,18.5
2016-06-12T01:01:01.949Z,18.48
2016-06-12T01:02:01.921Z,18.45
2016-06-12T01:03:01.971Z,18.45
2016-06-12T01:04:01.912Z,18.44
2016-06-12T01:05:02.055Z,18.42
2016-06-12T01:06:02.495Z,18.59
2016-06-12T01:07:01.889Z,18.41
2016-06-12T01:08:01.862Z,18.42
2016-06-12T01:09:01.848Z,18.5
2016-06-12T01:10:01.836Z,18.42
2016-06-12T01:11:01.667Z,18.38
2016-06-12T01:12:01.638Z,18.42
2016-06-12T01:13:01.783Z,18.32
2016-06-12T01:14:01.786Z,18.4
2016-06-12T01:15:01.695Z,18.38
2016-06-12T01:16:01.762Z,18.37
2016-06-12T01:17:01.607Z,18.38
2016-06-12T01:18:01.736Z,18.32
2016-06-12T01:19:01.723Z,18.35
2016-06-12T01:20:02.366Z,18.3
2016-06-12T01:21:01.979Z,18.33
2016-06-12T01:22:01.700Z,18.27
2016-06-12T01:23:01.689Z,18.27
2016-06-12T01:24:01.676Z,18.35
2016-06-12T01:25:01.648Z,18.2
2016-06-12T01:26:01.667Z,18.29
2016-06-12T01:27:01.623Z,18.37
2016-06-12T01:28:01.626Z,18.37
2016-06-12T01:29:01.597Z,18.4
2016-06-12T01:30:01.585Z,18.33
2016-06-12T01:31:01.589Z,18.26
2016-06-12T01:32:01.575Z,18.33
2016-06-12T01:33:01.563Z,18.29
2016-06-12T01:34:01.535Z,18.14
2016-06-12T01:35:01.820Z,18.25
2016-06-12T01:36:02.026Z,18.27
2016-06-12T01:37:01.482Z,18.27
2016-06-12T01:38:01.500Z,18.32
2016-06-12T01:39:01.472Z,18.37
2016-06-12T01:40:01.491Z,18.38
2016-06-12T01:41:01.448Z,18.33
2016-06-12T01:42:01.278Z,18.3
2016-06-12T01:43:01.422Z,18.23
2016-06-12T01:44:01.409Z,18.27
2016-06-12T01:45:01.397Z,18.29
2016-06-12T01:46:01.385Z,18.12
2016-06-12T01:47:01.371Z,18.14
2016-06-12T01:48:01.422Z,18.29
2016-06-12T01:49:01.347Z,18.22
2016-06-12T01:50:01.412Z,18.26
2016-06-12T01:51:01.181Z,18.23
2016-06-12T01:52:01.340Z,18.26
2016-06-12T01:53:01.312Z,18.08
2016-06-12T01:54:01.299Z,18.25
2016-06-12T01:55:01.272Z,18.26
2016-06-12T01:56:01.290Z,18.26
2016-06-12T01:57:01.262Z,18.12
2016-06-12T01:58:01.266Z,18.26
2016-06-12T01:59:01.221Z,18.25
2016-06-12T02:00:01.272Z,18.11
2016-06-12T02:01:01.196Z,18.19
2016-06-12T02:02:01.028Z,18.14
2016-06-12T02:03:01.156Z,18.1
2016-06-12T02:04:01.190Z,18.08
2016-06-12T02:05:01.146Z,18.02
2016-06-12T02:06:01.977Z,18.12
2016-06-12T02:07:01.136Z,18.07
2016-06-12T02:08:01.108Z,18.04
2016-06-12T02:09:00.940Z,18.12
2016-06-12T02:10:01.099Z,18.26
2016-06-12T02:11:01.056Z,18.15
2016-06-12T02:12:01.090Z,18.22
2016-06-12T02:13:01.062Z,18.15
2016-06-12T02:14:00.893Z,18.26
2016-06-12T02:15:01.005Z,18.29
2016-06-12T02:16:01.008Z,18.15
2016-06-12T02:17:00.995Z,18.14
2016-06-12T02:18:01.030Z,18.2
2016-06-12T02:19:00.970Z,18.19
2016-06-12T02:20:00.989Z,18.11
2016-06-12T02:21:01.742Z,18.08
2016-06-12T02:22:00.933Z,18.07
2016-06-12T02:23:00.967Z,18.05
2016-06-12T02:24:00.954Z,18.08
2016-06-12T02:25:00.894Z,18.01
2016-06-12T02:26:00.945Z,18.05
2016-06-12T02:27:00.870Z,18.07
2016-06-12T02:28:00.857Z,18.1
2016-06-12T02:29:00.861Z,18
2016-06-12T02:30:00.848Z,18.01
2016-06-12T02:31:00.820Z,18.08
2016-06-12T02:32:00.807Z,18.02
2016-06-12T02:33:00.811Z,18.07
2016-06-12T02:34:00.813Z,18.11
2016-06-12T02:35:00.832Z,18.15
2016-06-12T02:36:00.819Z,18.11
2016-06-12T02:37:00.744Z,18.04
2016-06-12T02:38:00.717Z,18.12
2016-06-12T02:39:00.720Z,18.05
2016-06-12T02:40:00.691Z,18.04
2016-06-12T02:41:00.693Z,18.02
2016-06-12T02:42:00.666Z,18.11
2016-06-12T02:43:00.669Z,18.1
2016-06-12T02:44:00.657Z,18.02
2016-06-12T02:45:00.628Z,18.02
2016-06-12T02:46:00.631Z,18.04
2016-06-12T02:47:00.619Z,18.11
2016-06-12T02:48:00.622Z,18.01
2016-06-12T02:49:00.593Z,18
2016-06-12T02:50:00.565Z,18.05
2016-06-12T02:51:01.787Z,18.05
2016-06-12T02:52:00.541Z,18.04
2016-06-12T02:53:00.559Z,18.02
2016-06-12T02:54:00.515Z,18.05
2016-06-12T02:55:00.519Z,18.08
2016-06-12T02:56:00.490Z,18.07
2016-06-12T02:57:00.477Z,18.02
2016-06-12T02:58:00.481Z,17.93
2016-06-12T02:59:00.468Z,17.87
2016-06-12T03:00:00.440Z,17.85
2016-06-12T03:01:00.427Z,17.95
2016-06-12T03:02:00.430Z,18.04
2016-06-12T03:03:00.402Z,18.01
2016-06-12T03:04:00.405Z,18.05
2016-06-12T03:05:00.378Z,18.02
2016-06-12T03:06:00.255Z,18.08
2016-06-12T03:07:00.352Z,18.12
2016-06-12T03:08:00.356Z,18.01
2016-06-12T03:09:00.327Z,18.05
2016-06-12T03:10:00.329Z,18.01
2016-06-12T03:11:00.302Z,18.01
2016-06-12T03:12:00.149Z,17.98
2016-06-12T03:13:00.292Z,17.92
2016-06-12T03:14:00.264Z,17.98
2016-06-12T03:15:00.252Z,17.96
2016-06-12T03:16:00.240Z,17.98
2016-06-12T03:17:00.289Z,17.95
2016-06-12T03:18:00.214Z,17.95
2016-06-12T03:19:00.248Z,17.89
2016-06-12T03:20:00.220Z,17.95
2016-06-12T03:21:00.192Z,17.93
2016-06-12T03:22:00.163Z,17.85
2016-06-12T03:23:00.166Z,17.98
2016-06-12T03:24:00.155Z,17.85
2016-06-12T03:25:00.126Z,17.93
2016-06-12T03:26:00.129Z,17.83
2016-06-12T03:27:00.117Z,17.95
2016-06-12T03:28:00.088Z,17.82
2016-06-12T03:29:00.076Z,17.8
2016-06-12T03:30:00.049Z,17.85
2016-06-12T03:31:00.051Z,17.85
2016-06-12T03:32:00.054Z,17.89
2016-06-12T03:33:00.042Z,17.95
2016-06-12T03:33:59.686Z,17.95
2016-06-12T03:35:00.064Z,17.93
2016-06-12T03:36:00.675Z,17.82
2016-06-12T03:37:00.023Z,17.86
2016-06-12T03:37:59.979Z,17.78
2016-06-12T03:38:59.997Z,17.7
2016-06-12T03:39:59.938Z,17.78
2016-06-12T03:40:59.925Z,17.85
2016-06-12T03:41:59.914Z,17.78
2016-06-12T03:42:59.916Z,17.85
2016-06-12T03:43:59.887Z,17.82
2016-06-12T03:44:59.937Z,17.83
2016-06-12T03:45:59.893Z,17.85
2016-06-12T03:46:59.851Z,17.83
2016-06-12T03:47:59.838Z,17.85
2016-06-12T03:48:59.840Z,17.8
2016-06-12T03:49:59.813Z,17.74
2016-06-12T03:51:00.128Z,17.77
2016-06-12T03:51:59.787Z,17.68
2016-06-12T03:52:59.759Z,17.78
2016-06-12T03:53:59.762Z,17.67
2016-06-12T03:54:59.782Z,17.7
2016-06-12T03:55:59.737Z,17.67
2016-06-12T03:56:59.709Z,17.65
2016-06-12T03:57:59.727Z,17.75
2016-06-12T03:58:59.683Z,17.83
2016-06-12T03:59:59.672Z,17.86
2016-06-12T04:00:59.675Z,17.8
2016-06-12T04:01:59.661Z,17.8
2016-06-12T04:02:59.633Z,17.83
2016-06-12T04:03:59.621Z,17.82
2016-06-12T04:04:59.609Z,17.75
2016-06-12T04:06:00.034Z,17.72
2016-06-12T04:06:59.583Z,17.75
2016-06-12T04:07:59.399Z,17.86
2016-06-12T04:08:59.589Z,17.8
2016-06-12T04:09:59.546Z,17.86
2016-06-12T04:10:59.533Z,17.93
2016-06-12T04:11:59.505Z,18
2016-06-12T04:12:59.508Z,17.96
2016-06-12T04:13:59.496Z,17.9
2016-06-12T04:14:59.498Z,17.98
2016-06-12T04:15:59.471Z,18.04
2016-06-12T04:16:59.443Z,18
2016-06-12T04:17:59.446Z,18.02
2016-06-12T04:18:59.432Z,18
2016-06-12T04:19:59.420Z,17.96
2016-06-12T04:20:59.392Z,17.96
2016-06-12T04:21:59.411Z,18.1
2016-06-12T04:22:59.398Z,18.07
2016-06-12T04:23:59.370Z,18.14
2016-06-12T04:24:59.374Z,18.08
2016-06-12T04:25:59.345Z,18.01
2016-06-12T04:26:59.348Z,18.1
2016-06-12T04:27:59.382Z,18.08
2016-06-12T04:28:59.292Z,18.01
2016-06-12T04:29:59.186Z,18.02
2016-06-12T04:30:59.298Z,18.15
2016-06-12T04:31:59.269Z,18.05
2016-06-12T04:32:59.257Z,18.11
2016-06-12T04:33:59.260Z,18.07
2016-06-12T04:34:59.232Z,18.12
2016-06-12T04:35:59.219Z,18.14
2016-06-12T04:36:59.191Z,18.08
2016-06-12T04:37:59.195Z,18.1
2016-06-12T04:38:59.181Z,18.01
2016-06-12T04:39:59.184Z,18.05
2016-06-12T04:40:59.142Z,18.11
2016-06-12T04:41:59.145Z,18.11
2016-06-12T04:42:59.132Z,18.12
2016-06-12T04:43:59.119Z,18.11
2016-06-12T04:44:59.107Z,18.25
2016-06-12T04:45:59.188Z,18.11
2016-06-12T04:46:59.081Z,18.08
2016-06-12T04:47:59.053Z,18.12
2016-06-12T04:48:59.056Z,18.14
2016-06-12T04:49:59.090Z,18.18
2016-06-12T04:50:59.031Z,18.2
2016-06-12T04:51:59.426Z,18.27
2016-06-12T04:52:58.990Z,18.12
2016-06-12T04:53:58.977Z,18.26
2016-06-12T04:54:58.981Z,18.1
2016-06-12T04:55:58.969Z,18.05
2016-06-12T04:56:58.955Z,18.1
2016-06-12T04:57:58.944Z,18.22
2016-06-12T04:58:58.931Z,18.22
2016-06-12T04:59:58.918Z,18.05
2016-06-12T05:00:58.890Z,18.15
2016-06-12T05:01:58.893Z,17.9
2016-06-12T05:02:58.880Z,17.86
2016-06-12T05:03:58.868Z,17.83
2016-06-12T05:04:58.840Z,17.93
2016-06-12T05:05:58.859Z,18.02
2016-06-12T05:06:58.659Z,18.12
2016-06-12T05:07:58.802Z,18.15
2016-06-12T05:08:58.805Z,18.25
2016-06-12T05:09:58.652Z,18.23
2016-06-12T05:10:58.796Z,18.3
2016-06-12T05:11:58.767Z,18.37
2016-06-12T05:12:58.755Z,18.4
2016-06-12T05:13:58.743Z,18.38
2016-06-12T05:14:58.730Z,18.44
2016-06-12T05:15:58.702Z,18.42
2016-06-12T05:16:58.705Z,18.41
2016-06-12T05:17:58.708Z,18.48
2016-06-12T05:18:58.680Z,18.44
2016-06-12T05:19:58.651Z,18.41
2016-06-12T05:20:58.654Z,18.3
2016-06-12T05:21:58.830Z,18.4
2016-06-12T05:22:58.614Z,18.35
2016-06-12T05:23:58.616Z,18.38
2016-06-12T05:24:58.605Z,18.42
2016-06-12T05:25:58.435Z,18.22
2016-06-12T05:26:58.579Z,18.27
2016-06-12T05:27:58.567Z,18.3
2016-06-12T05:28:58.539Z,18.12
2016-06-12T05:29:58.385Z,18.14
2016-06-12T05:30:58.530Z,18.37
2016-06-12T05:31:58.516Z,18.37
2016-06-12T05:32:58.520Z,18.42
2016-06-12T05:33:58.475Z,18.45
2016-06-12T05:34:58.479Z,18.52
2016-06-12T05:35:58.481Z,18.59
2016-06-12T05:36:58.454Z,18.75
2016-06-12T05:37:58.457Z,18.9
2016-06-12T05:38:58.273Z,18.88
2016-06-12T05:39:58.416Z,19.04
2016-06-12T05:40:58.419Z,19.07
2016-06-12T05:41:58.407Z,18.97
2016-06-12T05:42:58.394Z,18.92
2016-06-12T05:43:58.381Z,19.06
2016-06-12T05:44:58.384Z,19.16
2016-06-12T05:45:58.200Z,19.16
2016-06-12T05:46:58.344Z,18.93
2016-06-12T05:47:58.315Z,18.9
2016-06-12T05:48:58.303Z,18.92
2016-06-12T05:49:58.306Z,19.02
2016-06-12T05:50:58.310Z,19.07
2016-06-12T05:51:59.453Z,19.08
2016-06-12T05:52:58.097Z,18.96
2016-06-12T05:53:58.256Z,18.82
2016-06-12T05:54:58.306Z,18.56
2016-06-12T05:55:58.231Z,18.32
2016-06-12T05:56:58.218Z,18.35
2016-06-12T05:57:58.207Z,18.35
2016-06-12T05:58:58.177Z,18.4
2016-06-12T05:59:58.165Z,18.38
2016-06-12T06:00:58.184Z,18.32
2016-06-12T06:01:58.155Z,18.37
2016-06-12T06:02:58.144Z,18.29
2016-06-12T06:03:58.114Z,18.45
2016-06-12T06:04:58.181Z,18.62
2016-06-12T06:05:58.120Z,18.73
2016-06-12T06:06:58.031Z,18.78
2016-06-12T06:07:58.080Z,18.95
2016-06-12T06:08:58.068Z,19.02
2016-06-12T06:09:58.071Z,19.21
2016-06-12T06:10:58.105Z,19.18
2016-06-12T06:11:58.030Z,19.23
2016-06-12T06:12:58.017Z,19.21
2016-06-12T06:13:58.005Z,19.19
2016-06-12T06:14:57.993Z,19.19
2016-06-12T06:15:57.995Z,19.15
2016-06-12T06:16:57.982Z,19.07
2016-06-12T06:17:57.971Z,19.07
2016-06-12T06:18:57.958Z,19.16
2016-06-12T06:19:57.946Z,19.07
2016-06-12T06:20:58.573Z,19.02
2016-06-12T06:21:57.920Z,18.92
2016-06-12T06:22:57.970Z,18.95
2016-06-12T06:23:57.879Z,18.87
2016-06-12T06:24:57.914Z,18.88
2016-06-12T06:25:57.871Z,18.63
2016-06-12T06:26:57.857Z,18.77
2016-06-12T06:27:57.845Z,18.93
2016-06-12T06:28:57.833Z,18.92
2016-06-12T06:29:57.836Z,18.99
2016-06-12T06:30:57.823Z,19.16
2016-06-12T06:31:57.794Z,19.28
2016-06-12T06:32:57.782Z,19.51
2016-06-12T06:33:57.770Z,19.49
2016-06-12T06:34:57.756Z,19.63
2016-06-12T06:35:57.760Z,19.98
2016-06-12T06:36:58.232Z,20.14
2016-06-12T06:37:57.735Z,20.13
2016-06-12T06:38:57.722Z,20.25
2016-06-12T06:39:57.695Z,20.41
2016-06-12T06:40:57.698Z,20.32
2016-06-12T06:41:57.684Z,20.43
2016-06-12T06:42:57.673Z,20.31
2016-06-12T06:43:57.659Z,20.31
2016-06-12T06:44:57.648Z,20.32
2016-06-12T06:45:57.651Z,20.41
2016-06-12T06:46:57.638Z,20.54
2016-06-12T06:47:57.625Z,20.62
2016-06-12T06:48:57.627Z,20.54
2016-06-12T06:49:57.678Z,20.7
2016-06-12T06:50:57.603Z,20.82
2016-06-12T06:51:57.872Z,21.02
2016-06-12T06:52:57.578Z,21.1
2016-06-12T06:53:57.565Z,21.33
2016-06-12T06:54:57.615Z,21.43
2016-06-12T06:55:57.571Z,21.59
2016-06-12T06:56:57.528Z,21.79
2016-06-12T06:57:57.531Z,21.97
2016-06-12T06:58:57.502Z,22.06
2016-06-12T06:59:57.537Z,22.15
2016-06-12T07:00:57.478Z,22.37
2016-06-12T07:01:57.512Z,22.43
2016-06-12T07:02:57.468Z,22.54
2016-06-12T07:03:57.502Z,22.48
2016-06-12T07:04:57.287Z,22.52
2016-06-12T07:05:57.446Z,22.45
2016-06-12T07:06:57.434Z,22.39
2016-06-12T07:07:57.422Z,22.39
2016-06-12T07:08:57.425Z,22.3
2016-06-12T07:09:57.411Z,22.21
2016-06-12T07:10:57.415Z,22.2
2016-06-12T07:11:57.402Z,22.22
2016-06-12T07:12:57.390Z,22.3
2016-06-12T07:13:57.376Z,22.35
2016-06-12T07:14:57.365Z,22.37
2016-06-12T07:15:57.352Z,22.4
2016-06-12T07:16:57.355Z,22.37
2016-06-12T07:17:57.342Z,22.42
2016-06-12T07:18:57.330Z,22.59
2016-06-12T07:19:57.333Z,22.65
2016-06-12T07:20:57.304Z,22.65
2016-06-12T07:21:57.448Z,22.62
2016-06-12T07:22:57.311Z,22.65
2016-06-12T07:23:57.299Z,22.89
2016-06-12T07:24:57.316Z,22.94
2016-06-12T07:25:57.274Z,23.02
2016-06-12T07:26:57.260Z,23.14
2016-06-12T07:27:57.263Z,23.12
2016-06-12T07:28:57.236Z,23.21
2016-06-12T07:29:57.239Z,23.33
2016-06-12T07:30:57.242Z,23.32
2016-06-12T07:31:57.073Z,23.45
2016-06-12T07:32:57.216Z,23.59
2016-06-12T07:33:57.204Z,23.55
2016-06-12T07:34:57.191Z,23.65
2016-06-12T07:35:57.179Z,23.59
2016-06-12T07:36:57.041Z,23.6
2016-06-12T07:37:57.201Z,23.54
2016-06-12T07:38:57.142Z,23.55
2016-06-12T07:39:57.145Z,23.55
2016-06-12T07:40:57.195Z,23.66
2016-06-12T07:41:57.135Z,23.72
2016-06-12T07:42:57.138Z,23.8
2016-06-12T07:43:57.125Z,23.82
2016-06-12T07:44:57.097Z,23.77
2016-06-12T07:45:57.085Z,23.82
2016-06-12T07:46:57.166Z,23.78
2016-06-12T07:47:57.075Z,23.82
2016-06-12T07:48:57.094Z,23.89
2016-06-12T07:49:57.065Z,24.1
2016-06-12T07:50:57.068Z,24.21
2016-06-12T07:51:57.071Z,24.25
2016-06-12T07:52:56.903Z,24.42
2016-06-12T07:53:57.031Z,24.46
2016-06-12T07:54:57.050Z,24.44
2016-06-12T07:55:57.022Z,24.49
2016-06-12T07:56:57.009Z,24.49
2016-06-12T07:57:57.012Z,24.46
2016-06-12T07:58:57.000Z,24.57
2016-06-12T07:59:57.003Z,24.78
2016-06-12T08:00:57.006Z,24.74
2016-06-12T08:01:56.978Z,24.84
2016-06-12T08:02:56.965Z,24.96
2016-06-12T08:03:56.984Z,24.96
2016-06-12T08:04:56.955Z,24.75
2016-06-12T08:05:56.958Z,24.93
2016-06-12T08:06:57.478Z,25.03
2016-06-12T08:07:56.948Z,25.03
2016-06-12T08:08:56.937Z,25.15
2016-06-12T08:09:56.924Z,25.11
2016-06-12T08:10:56.912Z,24.9
2016-06-12T08:11:56.899Z,24.8
2016-06-12T08:12:56.902Z,24.74
2016-06-12T08:13:56.905Z,24.71
2016-06-12T08:14:56.892Z,24.84
2016-06-12T08:15:56.880Z,24.87
2016-06-12T08:16:56.883Z,24.61
2016-06-12T08:17:56.854Z,24.75
2016-06-12T08:18:56.874Z,24.65
2016-06-12T08:19:56.860Z,24.71
2016-06-12T08:20:56.849Z,24.77
2016-06-12T08:21:57.149Z,24.87
2016-06-12T08:22:56.667Z,25.08
2016-06-12T08:23:56.889Z,25.39
2016-06-12T08:24:56.814Z,25.42
2016-06-12T08:25:56.865Z,25.36
2016-06-12T08:26:56.804Z,25.4
2016-06-12T08:27:56.839Z,25.7
2016-06-12T08:28:56.811Z,25.81
2016-06-12T08:29:56.782Z,26.11
2016-06-12T08:30:56.786Z,26.01
2016-06-12T08:31:56.866Z,26.23
2016-06-12T08:32:56.760Z,26.29
2016-06-12T08:33:56.779Z,26.2
2016-06-12T08:34:56.750Z,26.11
2016-06-12T08:35:56.770Z,25.77
2016-06-12T08:36:57.007Z,25.91
2016-06-12T08:37:56.838Z,26.11
2016-06-12T08:38:56.576Z,26.11
2016-06-12T08:39:56.766Z,26.03
2016-06-12T08:40:56.722Z,25.94
2016-06-12T08:41:56.726Z,26.23
2016-06-12T08:42:56.698Z,26.27
2016-06-12T08:43:56.731Z,26.26
2016-06-12T08:44:56.688Z,26.03
2016-06-12T08:45:56.706Z,26.15
2016-06-12T08:46:56.678Z,26.47
2016-06-12T08:47:56.666Z,26.44
2016-06-12T08:48:56.685Z,26.67
2016-06-12T08:49:56.672Z,26.81
2016-06-12T08:50:56.660Z,26.79
2016-06-12T08:51:56.663Z,26.39
2016-06-12T08:52:56.494Z,26.41
2016-06-12T08:53:56.654Z,26.61
2016-06-12T08:54:56.673Z,26.79
2016-06-12T08:55:56.628Z,26.76
2016-06-12T08:56:56.632Z,26.85
2016-06-12T08:57:56.619Z,26.94
2016-06-12T08:58:56.669Z,26.97
2016-06-12T08:59:56.608Z,27.01
2016-06-12T09:00:56.675Z,26.82
2016-06-12T09:01:56.615Z,26.67
2016-06-12T09:02:56.431Z,26.78
2016-06-12T09:03:56.606Z,26.82
2016-06-12T09:04:56.640Z,26.81
2016-06-12T09:05:56.581Z,26.59
2016-06-12T09:06:57.240Z,26.81
2016-06-12T09:07:56.568Z,26.61
2016-06-12T09:08:56.603Z,26.76
2016-06-12T09:09:56.574Z,26.86
2016-06-12T09:10:56.594Z,26.67
2016-06-12T09:11:56.581Z,26.45
2016-06-12T09:12:56.536Z,26.44
2016-06-12T09:13:56.523Z,25.91
2016-06-12T09:14:56.528Z,25.95
2016-06-12T09:15:56.571Z,25.99
2016-06-12T09:16:56.584Z,26.17
2016-06-12T09:17:56.488Z,26.29
2016-06-12T09:18:56.672Z,26.51
2016-06-12T09:19:56.700Z,26.57
2016-06-12T09:20:56.733Z,26.49
2016-06-12T09:21:56.766Z,26.56
2016-06-12T09:22:56.628Z,26.78
2016-06-12T09:23:56.739Z,27
2016-06-12T09:24:56.772Z,27.18
2016-06-12T09:25:56.764Z,27.63
2016-06-12T09:26:56.741Z,27.68
2016-06-12T09:27:56.780Z,27.97
2016-06-12T09:28:56.742Z,27.79
2016-06-12T09:29:56.782Z,27.59
2016-06-12T09:30:56.740Z,27.61
2016-06-12T09:31:56.744Z,27.63
2016-06-12T09:32:56.750Z,27.44
2016-06-12T09:33:56.754Z,27.88
2016-06-12T09:34:56.728Z,28.28
2016-06-12T09:35:56.841Z,28.58
2016-06-12T09:36:56.720Z,28.67
2016-06-12T09:37:57.052Z,28.65
2016-06-12T09:38:56.711Z,28.6
2016-06-12T09:39:56.716Z,28.37
2016-06-12T09:40:56.719Z,28.4
2016-06-12T09:41:56.754Z,28.28
2016-06-12T09:42:56.711Z,28.53
2016-06-12T09:43:56.714Z,28.67
2016-06-12T09:44:56.718Z,28.77
2016-06-12T09:45:56.689Z,28.84
2016-06-12T09:46:56.677Z,28.65
2016-06-12T09:47:56.727Z,28.92
2016-06-12T09:48:56.683Z,28.9
2016-06-12T09:49:56.701Z,28.86
2016-06-12T09:50:56.673Z,28.52
2016-06-12T09:51:57.052Z,27.82
2016-06-12T09:52:56.664Z,28.33
2016-06-12T09:53:56.698Z,28.23
2016-06-12T09:54:56.671Z,27.88
2016-06-12T09:55:56.658Z,27.94
2016-06-12T09:56:56.660Z,28.01
2016-06-12T09:57:56.647Z,28.25
2016-06-12T09:58:56.698Z,28.52
2016-06-12T09:59:56.654Z,28.31
2016-06-12T10:00:56.626Z,28.35
2016-06-12T10:01:56.629Z,27.61
2016-06-12T10:02:56.632Z,27.53
2016-06-12T10:03:56.619Z,27.69
2016-06-12T10:04:56.622Z,28.05
2016-06-12T10:05:56.469Z,28.35
2016-06-12T10:06:57.504Z,28.31
2016-06-12T10:07:57.178Z,28.33
2016-06-12T10:08:56.619Z,27.91
2016-06-12T10:09:56.435Z,27.81
2016-06-12T10:10:56.595Z,27.87
2016-06-12T10:11:56.597Z,27.64
2016-06-12T10:12:56.663Z,27.64
2016-06-12T10:13:56.588Z,27.81
2016-06-12T10:14:56.638Z,27.53
2016-06-12T10:15:56.641Z,27.57
2016-06-12T10:16:56.644Z,27.72
2016-06-12T10:17:56.569Z,27.64
2016-06-12T10:18:56.697Z,27.57
2016-06-12T10:19:56.576Z,27.69
2016-06-12T10:20:56.562Z,27.71
2016-06-12T10:21:56.534Z,27.64
2016-06-12T10:22:56.772Z,27.64
2016-06-12T10:23:56.603Z,26.64
2016-06-12T10:24:56.622Z,26.78
2016-06-12T10:25:56.531Z,26.78
2016-06-12T10:26:56.534Z,27.37
2016-06-12T10:27:56.522Z,27.9
2016-06-12T10:28:56.525Z,28.12
2016-06-12T10:29:56.512Z,28.27
2016-06-12T10:30:56.515Z,27.76
2016-06-12T10:31:56.503Z,27.74
2016-06-12T10:32:56.506Z,27.6
2016-06-12T10:33:56.494Z,27.36
2016-06-12T10:34:56.511Z,27.23
2016-06-12T10:35:56.468Z,27.25
2016-06-12T10:36:56.487Z,27.25
2016-06-12T10:37:57.115Z,27.12
2016-06-12T10:38:56.477Z,27
2016-06-12T10:39:56.480Z,26.89
2016-06-12T10:40:56.468Z,27.03
2016-06-12T10:41:56.768Z,27.23
2016-06-12T10:42:56.536Z,27.23
2016-06-12T10:43:56.539Z,27.46
2016-06-12T10:44:56.464Z,27.38
2016-06-12T10:45:56.452Z,27.07
2016-06-12T10:46:56.267Z,26.86
2016-06-12T10:47:56.286Z,27.04
2016-06-12T10:48:56.415Z,27.01
2016-06-12T10:49:56.433Z,26.76
2016-06-12T10:50:56.248Z,26.81
2016-06-12T10:51:56.252Z,26.76
2016-06-12T10:52:56.567Z,26.78
2016-06-12T10:53:56.382Z,26.98
2016-06-12T10:54:56.386Z,26.98
2016-06-12T10:55:56.373Z,26.88
2016-06-12T10:56:56.392Z,27.07
2016-06-12T10:57:56.457Z,26.86
2016-06-12T10:58:56.368Z,26.79
2016-06-12T10:59:56.213Z,27.21
2016-06-12T11:00:56.357Z,27.55
2016-06-12T11:01:56.360Z,27.61
2016-06-12T11:02:56.364Z,27.36
2016-06-12T11:03:56.336Z,27.55
2016-06-12T11:04:56.338Z,27.72
2016-06-12T11:05:56.342Z,27.93
2016-06-12T11:06:56.329Z,27.61
2016-06-12T11:07:56.190Z,27.84
2016-06-12T11:08:56.319Z,28.15
2016-06-12T11:09:56.229Z,28.4
2016-06-12T11:10:56.325Z,28.52
2016-06-12T11:11:56.297Z,28.65
2016-06-12T11:12:56.316Z,28.84
2016-06-12T11:13:56.303Z,29.06
2016-06-12T11:14:56.276Z,29.07
2016-06-12T11:15:56.295Z,29.02
2016-06-12T11:16:56.329Z,29.03
2016-06-12T11:17:56.269Z,28.89
2016-06-12T11:18:56.287Z,28.6
2016-06-12T11:19:56.260Z,28.8
2016-06-12T11:20:56.247Z,28.79
2016-06-12T11:21:56.250Z,28.86
2016-06-12T11:22:56.097Z,28.97
2016-06-12T11:23:56.256Z,29.05
2016-06-12T11:24:56.290Z,29.06
2016-06-12T11:25:56.262Z,28.86
2016-06-12T11:26:56.234Z,28.82
2016-06-12T11:27:56.252Z,28.89
2016-06-12T11:28:56.224Z,29.18
2016-06-12T11:29:56.228Z,29.64
2016-06-12T11:30:56.230Z,29.79
2016-06-12T11:31:56.218Z,29.68
2016-06-12T11:32:56.284Z,30.07
2016-06-12T11:33:56.209Z,29.77
2016-06-12T11:34:56.212Z,29.88
2016-06-12T11:35:56.184Z,29.25
2016-06-12T11:36:56.218Z,29.76
2016-06-12T11:37:56.628Z,30.28
2016-06-12T11:38:56.194Z,30.13
2016-06-12T11:39:56.181Z,29.61
2016-06-12T11:40:56.200Z,29.24
2016-06-12T11:41:56.170Z,29.09
2016-06-12T11:42:56.173Z,28.97
2016-06-12T11:43:56.161Z,28.82
2016-06-12T11:44:56.164Z,28.55
2016-06-12T11:45:56.012Z,28.83
2016-06-12T11:46:56.155Z,28.93
2016-06-12T11:47:56.002Z,29.3
2016-06-12T11:48:55.989Z,29.46
2016-06-12T11:49:56.133Z,29.73
2016-06-12T11:50:56.136Z,29.84
2016-06-12T11:51:56.139Z,30.02
2016-06-12T11:52:56.486Z,30.11
2016-06-12T11:53:56.005Z,30.17
2016-06-12T11:54:56.117Z,29.59
2016-06-12T11:55:56.136Z,29.37
2016-06-12T11:56:56.108Z,28.62
2016-06-12T11:57:56.126Z,28.55
2016-06-12T11:58:56.097Z,28.42
2016-06-12T11:59:56.148Z,28.52
2016-06-12T12:00:56.089Z,28.46
2016-06-12T12:01:56.092Z,28.43
2016-06-12T12:02:56.079Z,28.34
2016-06-12T12:03:56.082Z,28.31
2016-06-12T12:04:56.085Z,28.38
2016-06-12T12:05:56.057Z,28.27
2016-06-12T12:06:56.060Z,28.33
2016-06-12T12:07:56.375Z,28.23
2016-06-12T12:08:56.050Z,27.94
2016-06-12T12:09:56.053Z,27.82
2016-06-12T12:10:55.901Z,27.75
2016-06-12T12:11:56.059Z,27.63
2016-06-12T12:12:56.031Z,27.69
2016-06-12T12:13:56.035Z,27.33
2016-06-12T12:14:55.882Z,27.46
2016-06-12T12:15:56.041Z,27.36
2016-06-12T12:16:56.014Z,27.46
2016-06-12T12:17:56.016Z,27.6
2016-06-12T12:18:56.019Z,27.55
2016-06-12T12:19:56.023Z,27.64
2016-06-12T12:20:56.010Z,27.81
2016-06-12T12:21:55.998Z,28.1
2016-06-12T12:22:56.344Z,28.55
2016-06-12T12:23:55.988Z,28.77
2016-06-12T12:24:55.990Z,28.61
2016-06-12T12:25:55.994Z,28.71
2016-06-12T12:26:56.075Z,28.72
2016-06-12T12:27:55.952Z,28.7
2016-06-12T12:28:56.003Z,28.55
2016-06-12T12:29:55.959Z,28.27
2016-06-12T12:30:56.009Z,27.97
2016-06-12T12:31:55.950Z,27.76
2016-06-12T12:32:56.031Z,27.79
2016-06-12T12:33:55.956Z,27.9
2016-06-12T12:34:55.928Z,27.81
2016-06-12T12:35:55.930Z,27.76
2016-06-12T12:36:55.918Z,27.75
2016-06-12T12:37:56.030Z,27.55
2016-06-12T12:38:55.924Z,27.59
2016-06-12T12:39:55.896Z,27.6
2016-06-12T12:40:55.884Z,27.38
2016-06-12T12:41:55.886Z,27.21
2016-06-12T12:42:55.905Z,27.06
2016-06-12T12:43:55.893Z,26.84
2016-06-12T12:44:55.897Z,26.64
2016-06-12T12:45:55.867Z,26.47
2016-06-12T12:46:55.870Z,26.38
2016-06-12T12:47:55.873Z,26.37
2016-06-12T12:48:55.861Z,26.27
2016-06-12T12:49:55.865Z,26.07
2016-06-12T12:50:55.868Z,25.91
2016-06-12T12:51:55.855Z,25.86
2016-06-12T12:52:55.999Z,25.74
2016-06-12T12:53:55.861Z,25.67
2016-06-12T12:54:55.817Z,25.58